sensor_id;sensor_type;location;lat;lon;timestamp;P1;durP1;ratioP1;P2;durP2;ratioP2
7829;SDS011;3960;51.86894000;5.39848000;2023-05-14T00:01:48;18.02;;;12.32;;
7829;SDS011;3960;51.86894000;5.39848000;2023-05-14T00:04:15;17.90;;;12.82;;
7829;SDS011;3960;51.86894000;5.39848000;2023-05-14T00:06:41;15.07;;;12.68;;
7829;SDS011;3960;51.86894000;5.39848000;2023-05-14T00:09:07;17.73;;;13.25;;
7829;SDS011;3960;51.86894000;5.39848000;2023-05-14T00:11:32;17.98;;;12.15;;
7829;SDS011;3960;51.86894000;5.39848000;2023-05-14T00:13:57;18.38;;;13.50;;
7829;SDS011;3960;51.86894000;5.39848000;2023-05-14T00:16:23;15.70;;;13.20;;
7829;SDS011;3960;51.86894000;5.39848000;2023-05-14T00:18:48;16.27;;;12.95;;
7829;SDS011;3960;51.86894000;5.39848000;2023-05-14T00:21:13;19.33;;;13.30;;
7829;SDS011;3960;51.86894000;5.39848000;2023-05-14T00:23:39;17.02;;;13.88;;
7829;SDS011;3960;51.86894000;5.39848000;2023-05-14T00:26:04;17.02;;;13.38;;
7829;SDS011;3960;51.86894000;5.39848000;2023-05-14T00:28:30;19.35;;;13.90;;
7829;SDS011;3960;51.86894000;5.39848000;2023-05-14T00:30:55;23.17;;;14.55;;
7829;SDS011;3960;51.86894000;5.39848000;2023-05-14T00:33:21;18.35;;;13.93;;
7829;SDS011;3960;51.86894000;5.39848000;2023-05-14T00:35:46;18.90;;;13.95;;
7829;SDS011;3960;51.86894000;5.39848000;2023-05-14T00:38:11;20.30;;;14.23;;
7829;SDS011;3960;51.86894000;5.39848000;2023-05-14T00:40:41;19.92;;;14.52;;
7829;SDS011;3960;51.86894000;5.39848000;2023-05-14T00:43:09;21.15;;;14.93;;
7829;SDS011;3960;51.86894000;5.39848000;2023-05-14T00:45:35;18.00;;;15.10;;
7829;SDS011;3960;51.86894000;5.39848000;2023-05-14T00:48:00;20.30;;;15.38;;
7829;SDS011;3960;51.86894000;5.39848000;2023-05-14T00:50:25;23.75;;;15.25;;
7829;SDS011;3960;51.86894000;5.39848000;2023-05-14T00:52:51;25.15;;;15.48;;
7829;SDS011;3960;51.86894000;5.39848000;2023-05-14T00:55:17;18.90;;;14.80;;
7829;SDS011;3960;51.86894000;5.39848000;2023-05-14T00:57:43;21.67;;;15.02;;
7829;SDS011;3960;51.86894000;5.39848000;2023-05-14T01:00:08;20.38;;;15.15;;
7829;SDS011;3960;51.86894000;5.39848000;2023-05-14T01:02:34;24.13;;;15.38;;
7829;SDS011;3960;51.86894000;5.39848000;2023-05-14T01:05:00;21.77;;;15.25;;
7829;SDS011;3960;51.86894000;5.39848000;2023-05-14T01:07:29;18.35;;;15.25;;
7829;SDS011;3960;51.86894000;5.39848000;2023-05-14T01:10:10;24.85;;;15.63;;
7829;SDS011;3960;51.86894000;5.39848000;2023-05-14T01:13:12;22.90;;;16.05;;
7829;SDS011;3960;51.86894000;5.39848000;2023-05-14T01:15:37;24.10;;;15.90;;
7829;SDS011;3960;51.86894000;5.39848000;2023-05-14T01:18:07;20.35;;;15.88;;
7829;SDS011;3960;51.86894000;5.39848000;2023-05-14T01:20:34;23.27;;;15.77;;
7829;SDS011;3960;51.86894000;5.39848000;2023-05-14T01:23:00;21.52;;;15.88;;
7829;SDS011;3960;51.86894000;5.39848000;2023-05-14T01:25:26;24.45;;;16.00;;
7829;SDS011;3960;51.86894000;5.39848000;2023-05-14T01:30:40;20.73;;;15.75;;
7829;SDS011;3960;51.86894000;5.39848000;2023-05-14T01:33:15;20.83;;;15.52;;
7829;SDS011;3960;51.86894000;5.39848000;2023-05-14T01:35:42;26.00;;;16.30;;
7829;SDS011;3960;51.86894000;5.39848000;2023-05-14T01:38:09;20.90;;;16.33;;
7829;SDS011;3960;51.86894000;5.39848000;2023-05-14T01:40:36;21.20;;;15.80;;
7829;SDS011;3960;51.86894000;5.39848000;2023-05-14T01:43:02;21.77;;;15.40;;
7829;SDS011;3960;51.86894000;5.39848000;2023-05-14T01:45:28;24.65;;;16.05;;
7829;SDS011;3960;51.86894000;5.39848000;2023-05-14T01:47:54;23.25;;;15.88;;
7829;SDS011;3960;51.86894000;5.39848000;2023-05-14T01:50:20;21.35;;;16.02;;
7829;SDS011;3960;51.86894000;5.39848000;2023-05-14T01:52:45;21.30;;;16.40;;
7829;SDS011;3960;51.86894000;5.39848000;2023-05-14T01:55:12;23.23;;;16.13;;
7829;SDS011;3960;51.86894000;5.39848000;2023-05-14T01:57:37;23.40;;;16.75;;
7829;SDS011;3960;51.86894000;5.39848000;2023-05-14T02:00:03;20.05;;;16.10;;
7829;SDS011;3960;51.86894000;5.39848000;2023-05-14T02:02:29;20.58;;;17.02;;
7829;SDS011;3960;51.86894000;5.39848000;2023-05-14T02:04:55;22.42;;;17.48;;
7829;SDS011;3960;51.86894000;5.39848000;2023-05-14T02:07:20;24.35;;;17.70;;
7829;SDS011;3960;51.86894000;5.39848000;2023-05-14T02:09:45;26.73;;;17.17;;
7829;SDS011;3960;51.86894000;5.39848000;2023-05-14T02:12:10;22.83;;;17.45;;
7829;SDS011;3960;51.86894000;5.39848000;2023-05-14T02:14:36;21.98;;;17.20;;
7829;SDS011;3960;51.86894000;5.39848000;2023-05-14T02:17:02;22.63;;;16.25;;
7829;SDS011;3960;51.86894000;5.39848000;2023-05-14T02:19:27;26.52;;;17.23;;
7829;SDS011;3960;51.86894000;5.39848000;2023-05-14T02:21:53;22.40;;;17.23;;
7829;SDS011;3960;51.86894000;5.39848000;2023-05-14T02:24:18;27.15;;;16.55;;
7829;SDS011;3960;51.86894000;5.39848000;2023-05-14T02:26:44;23.15;;;16.50;;
7829;SDS011;3960;51.86894000;5.39848000;2023-05-14T02:29:09;21.85;;;16.35;;
7829;SDS011;3960;51.86894000;5.39848000;2023-05-14T02:31:35;22.55;;;17.38;;
7829;SDS011;3960;51.86894000;5.39848000;2023-05-14T02:34:01;24.70;;;17.48;;
7829;SDS011;3960;51.86894000;5.39848000;2023-05-14T02:36:28;28.88;;;18.13;;
7829;SDS011;3960;51.86894000;5.39848000;2023-05-14T02:38:53;23.58;;;16.52;;
7829;SDS011;3960;51.86894000;5.39848000;2023-05-14T02:41:18;27.50;;;17.75;;
7829;SDS011;3960;51.86894000;5.39848000;2023-05-14T02:43:43;27.67;;;17.90;;
7829;SDS011;3960;51.86894000;5.39848000;2023-05-14T02:46:09;22.85;;;17.05;;
7829;SDS011;3960;51.86894000;5.39848000;2023-05-14T02:48:34;27.67;;;18.15;;
7829;SDS011;3960;51.86894000;5.39848000;2023-05-14T02:50:59;24.52;;;16.30;;
7829;SDS011;3960;51.86894000;5.39848000;2023-05-14T02:53:26;23.77;;;17.13;;
7829;SDS011;3960;51.86894000;5.39848000;2023-05-14T02:55:51;24.77;;;16.58;;
7829;SDS011;3960;51.86894000;5.39848000;2023-05-14T02:58:16;29.83;;;17.48;;
7829;SDS011;3960;51.86894000;5.39848000;2023-05-14T03:00:43;20.23;;;16.17;;
7829;SDS011;3960;51.86894000;5.39848000;2023-05-14T03:03:08;24.25;;;17.52;;
7829;SDS011;3960;51.86894000;5.39848000;2023-05-14T03:05:33;22.45;;;16.92;;
7829;SDS011;3960;51.86894000;5.39848000;2023-05-14T03:07:59;23.08;;;17.35;;
7829;SDS011;3960;51.86894000;5.39848000;2023-05-14T03:10:24;21.95;;;16.75;;
7829;SDS011;3960;51.86894000;5.39848000;2023-05-14T03:12:50;27.45;;;17.30;;
7829;SDS011;3960;51.86894000;5.39848000;2023-05-14T03:15:15;25.35;;;16.95;;
7829;SDS011;3960;51.86894000;5.39848000;2023-05-14T03:17:41;23.27;;;16.10;;
7829;SDS011;3960;51.86894000;5.39848000;2023-05-14T03:20:06;23.70;;;17.42;;
7829;SDS011;3960;51.86894000;5.39848000;2023-05-14T03:22:32;23.27;;;17.02;;
7829;SDS011;3960;51.86894000;5.39848000;2023-05-14T03:24:57;28.73;;;16.98;;
7829;SDS011;3960;51.86894000;5.39848000;2023-05-14T03:27:22;35.33;;;17.35;;
7829;SDS011;3960;51.86894000;5.39848000;2023-05-14T03:29:48;24.15;;;16.20;;
7829;SDS011;3960;51.86894000;5.39848000;2023-05-14T03:32:13;26.92;;;16.65;;
7829;SDS011;3960;51.86894000;5.39848000;2023-05-14T03:34:39;22.98;;;15.98;;
7829;SDS011;3960;51.86894000;5.39848000;2023-05-14T03:37:04;28.58;;;17.20;;
7829;SDS011;3960;51.86894000;5.39848000;2023-05-14T03:39:30;24.23;;;16.92;;
7829;SDS011;3960;51.86894000;5.39848000;2023-05-14T03:41:55;26.88;;;16.17;;
7829;SDS011;3960;51.86894000;5.39848000;2023-05-14T03:44:22;21.55;;;17.25;;
7829;SDS011;3960;51.86894000;5.39848000;2023-05-14T03:46:48;29.30;;;17.33;;
7829;SDS011;3960;51.86894000;5.39848000;2023-05-14T03:49:13;31.50;;;17.73;;
7829;SDS011;3960;51.86894000;5.39848000;2023-05-14T03:51:38;23.92;;;17.42;;
7829;SDS011;3960;51.86894000;5.39848000;2023-05-14T03:54:05;29.58;;;19.45;;
7829;SDS011;3960;51.86894000;5.39848000;2023-05-14T03:56:30;26.20;;;17.05;;
7829;SDS011;3960;51.86894000;5.39848000;2023-05-14T03:58:55;29.02;;;18.15;;
7829;SDS011;3960;51.86894000;5.39848000;2023-05-14T04:01:20;27.08;;;18.42;;
7829;SDS011;3960;51.86894000;5.39848000;2023-05-14T04:03:46;25.02;;;17.63;;
7829;SDS011;3960;51.86894000;5.39848000;2023-05-14T04:06:11;26.17;;;17.85;;
7829;SDS011;3960;51.86894000;5.39848000;2023-05-14T04:08:37;32.10;;;19.00;;
7829;SDS011;3960;51.86894000;5.39848000;2023-05-14T04:11:02;26.02;;;18.73;;
7829;SDS011;3960;51.86894000;5.39848000;2023-05-14T04:13:27;30.33;;;18.85;;
7829;SDS011;3960;51.86894000;5.39848000;2023-05-14T04:15:52;26.05;;;17.77;;
7829;SDS011;3960;51.86894000;5.39848000;2023-05-14T04:18:18;26.30;;;18.48;;
7829;SDS011;3960;51.86894000;5.39848000;2023-05-14T04:20:43;28.98;;;17.55;;
7829;SDS011;3960;51.86894000;5.39848000;2023-05-14T04:23:09;25.35;;;18.20;;
7829;SDS011;3960;51.86894000;5.39848000;2023-05-14T04:25:34;29.40;;;17.92;;
7829;SDS011;3960;51.86894000;5.39848000;2023-05-14T04:27:59;26.88;;;17.30;;
7829;SDS011;3960;51.86894000;5.39848000;2023-05-14T04:30:24;23.48;;;17.13;;
7829;SDS011;3960;51.86894000;5.39848000;2023-05-14T04:32:50;24.50;;;17.67;;
7829;SDS011;3960;51.86894000;5.39848000;2023-05-14T04:35:15;25.58;;;18.10;;
7829;SDS011;3960;51.86894000;5.39848000;2023-05-14T04:37:40;27.50;;;18.00;;
7829;SDS011;3960;51.86894000;5.39848000;2023-05-14T04:40:08;26.30;;;17.90;;
7829;SDS011;3960;51.86894000;5.39848000;2023-05-14T04:42:37;31.47;;;17.20;;
7829;SDS011;3960;51.86894000;5.39848000;2023-05-14T04:45:03;25.33;;;17.67;;
7829;SDS011;3960;51.86894000;5.39848000;2023-05-14T04:47:29;28.60;;;18.42;;
7829;SDS011;3960;51.86894000;5.39848000;2023-05-14T04:49:55;26.10;;;17.70;;
7829;SDS011;3960;51.86894000;5.39848000;2023-05-14T04:52:21;27.80;;;17.33;;
7829;SDS011;3960;51.86894000;5.39848000;2023-05-14T04:54:47;22.85;;;16.83;;
7829;SDS011;3960;51.86894000;5.39848000;2023-05-14T04:57:12;23.92;;;17.05;;
7829;SDS011;3960;51.86894000;5.39848000;2023-05-14T04:59:37;27.27;;;16.67;;
7829;SDS011;3960;51.86894000;5.39848000;2023-05-14T05:02:02;25.00;;;17.50;;
7829;SDS011;3960;51.86894000;5.39848000;2023-05-14T05:04:28;29.67;;;17.30;;
7829;SDS011;3960;51.86894000;5.39848000;2023-05-14T05:06:53;24.25;;;17.38;;
7829;SDS011;3960;51.86894000;5.39848000;2023-05-14T05:09:18;24.15;;;17.05;;
7829;SDS011;3960;51.86894000;5.39848000;2023-05-14T05:11:44;26.13;;;17.38;;
7829;SDS011;3960;51.86894000;5.39848000;2023-05-14T05:14:09;28.65;;;16.92;;
7829;SDS011;3960;51.86894000;5.39848000;2023-05-14T05:16:34;23.13;;;16.75;;
7829;SDS011;3960;51.86894000;5.39848000;2023-05-14T05:19:00;27.73;;;16.90;;
7829;SDS011;3960;51.86894000;5.39848000;2023-05-14T05:21:25;22.98;;;16.42;;
7829;SDS011;3960;51.86894000;5.39848000;2023-05-14T05:23:50;27.13;;;17.05;;
7829;SDS011;3960;51.86894000;5.39848000;2023-05-14T05:26:16;24.10;;;15.88;;
7829;SDS011;3960;51.86894000;5.39848000;2023-05-14T05:28:41;30.88;;;16.88;;
7829;SDS011;3960;51.86894000;5.39848000;2023-05-14T05:31:06;25.55;;;15.60;;
7829;SDS011;3960;51.86894000;5.39848000;2023-05-14T05:33:32;25.23;;;15.95;;
7829;SDS011;3960;51.86894000;5.39848000;2023-05-14T05:35:58;19.45;;;14.77;;
7829;SDS011;3960;51.86894000;5.39848000;2023-05-14T05:38:24;20.40;;;14.40;;
7829;SDS011;3960;51.86894000;5.39848000;2023-05-14T05:40:49;20.58;;;14.15;;
7829;SDS011;3960;51.86894000;5.39848000;2023-05-14T05:43:15;20.80;;;14.27;;
7829;SDS011;3960;51.86894000;5.39848000;2023-05-14T05:45:40;19.88;;;14.43;;
7829;SDS011;3960;51.86894000;5.39848000;2023-05-14T05:48:06;24.85;;;14.38;;
7829;SDS011;3960;51.86894000;5.39848000;2023-05-14T05:50:31;21.50;;;14.15;;
7829;SDS011;3960;51.86894000;5.39848000;2023-05-14T05:52:56;18.50;;;12.93;;
7829;SDS011;3960;51.86894000;5.39848000;2023-05-14T05:55:23;19.05;;;12.93;;
7829;SDS011;3960;51.86894000;5.39848000;2023-05-14T05:57:49;21.98;;;13.45;;
7829;SDS011;3960;51.86894000;5.39848000;2023-05-14T06:00:14;15.63;;;12.07;;
7829;SDS011;3960;51.86894000;5.39848000;2023-05-14T06:02:41;18.13;;;11.70;;
7829;SDS011;3960;51.86894000;5.39848000;2023-05-14T06:05:06;17.38;;;11.57;;
7829;SDS011;3960;51.86894000;5.39848000;2023-05-14T06:07:33;20.83;;;11.40;;
7829;SDS011;3960;51.86894000;5.39848000;2023-05-14T06:09:58;17.67;;;12.15;;
7829;SDS011;3960;51.86894000;5.39848000;2023-05-14T06:12:24;17.08;;;10.48;;
7829;SDS011;3960;51.86894000;5.39848000;2023-05-14T06:14:49;13.77;;;9.95;;
7829;SDS011;3960;51.86894000;5.39848000;2023-05-14T06:17:15;15.63;;;10.05;;
7829;SDS011;3960;51.86894000;5.39848000;2023-05-14T06:19:40;14.52;;;10.05;;
7829;SDS011;3960;51.86894000;5.39848000;2023-05-14T06:22:05;15.32;;;9.40;;
7829;SDS011;3960;51.86894000;5.39848000;2023-05-14T06:24:31;14.20;;;9.93;;
7829;SDS011;3960;51.86894000;5.39848000;2023-05-14T06:26:56;13.70;;;10.10;;
7829;SDS011;3960;51.86894000;5.39848000;2023-05-14T06:29:22;14.75;;;9.52;;
7829;SDS011;3960;51.86894000;5.39848000;2023-05-14T06:31:47;16.98;;;9.95;;
7829;SDS011;3960;51.86894000;5.39848000;2023-05-14T06:34:12;17.73;;;9.23;;
7829;SDS011;3960;51.86894000;5.39848000;2023-05-14T06:36:38;11.32;;;8.80;;
7829;SDS011;3960;51.86894000;5.39848000;2023-05-14T06:39:03;14.57;;;8.63;;
7829;SDS011;3960;51.86894000;5.39848000;2023-05-14T06:41:28;13.18;;;8.30;;
7829;SDS011;3960;51.86894000;5.39848000;2023-05-14T06:43:53;12.77;;;8.57;;
7829;SDS011;3960;51.86894000;5.39848000;2023-05-14T06:46:19;12.48;;;8.32;;
7829;SDS011;3960;51.86894000;5.39848000;2023-05-14T06:48:45;13.30;;;8.27;;
7829;SDS011;3960;51.86894000;5.39848000;2023-05-14T06:51:10;12.50;;;8.20;;
7829;SDS011;3960;51.86894000;5.39848000;2023-05-14T06:53:37;12.32;;;8.43;;
7829;SDS011;3960;51.86894000;5.39848000;2023-05-14T06:56:02;11.43;;;8.07;;
7829;SDS011;3960;51.86894000;5.39848000;2023-05-14T06:58:28;17.15;;;8.48;;
7829;SDS011;3960;51.86894000;5.39848000;2023-05-14T07:00:53;13.65;;;8.75;;
7829;SDS011;3960;51.86894000;5.39848000;2023-05-14T07:03:18;14.30;;;8.82;;
7829;SDS011;3960;51.86894000;5.39848000;2023-05-14T07:05:43;12.13;;;8.75;;
7829;SDS011;3960;51.86894000;5.39848000;2023-05-14T07:08:10;17.25;;;9.32;;
7829;SDS011;3960;51.86894000;5.39848000;2023-05-14T07:10:35;13.70;;;8.25;;
7829;SDS011;3960;51.86894000;5.39848000;2023-05-14T07:13:01;11.95;;;8.88;;
7829;SDS011;3960;51.86894000;5.39848000;2023-05-14T07:15:27;14.15;;;8.38;;
7829;SDS011;3960;51.86894000;5.39848000;2023-05-14T07:17:52;10.13;;;8.32;;
7829;SDS011;3960;51.86894000;5.39848000;2023-05-14T07:20:18;13.30;;;7.82;;
7829;SDS011;3960;51.86894000;5.39848000;2023-05-14T07:22:43;12.57;;;8.27;;
7829;SDS011;3960;51.86894000;5.39848000;2023-05-14T07:25:08;12.50;;;8.00;;
7829;SDS011;3960;51.86894000;5.39848000;2023-05-14T07:27:34;11.13;;;6.90;;
7829;SDS011;3960;51.86894000;5.39848000;2023-05-14T07:29:59;13.02;;;7.43;;
7829;SDS011;3960;51.86894000;5.39848000;2023-05-14T07:32:24;10.25;;;6.60;;
7829;SDS011;3960;51.86894000;5.39848000;2023-05-14T07:34:50;10.13;;;6.85;;
7829;SDS011;3960;51.86894000;5.39848000;2023-05-14T07:37:15;10.73;;;7.18;;
7829;SDS011;3960;51.86894000;5.39848000;2023-05-14T07:39:40;14.30;;;6.72;;
7829;SDS011;3960;51.86894000;5.39848000;2023-05-14T07:42:06;12.38;;;7.68;;
7829;SDS011;3960;51.86894000;5.39848000;2023-05-14T07:44:31;11.35;;;7.18;;
7829;SDS011;3960;51.86894000;5.39848000;2023-05-14T07:46:56;9.57;;;7.10;;
7829;SDS011;3960;51.86894000;5.39848000;2023-05-14T07:49:22;10.05;;;6.93;;
7829;SDS011;3960;51.86894000;5.39848000;2023-05-14T07:51:47;11.98;;;7.20;;
7829;SDS011;3960;51.86894000;5.39848000;2023-05-14T07:54:12;12.80;;;6.78;;
7829;SDS011;3960;51.86894000;5.39848000;2023-05-14T07:56:37;12.38;;;7.30;;
7829;SDS011;3960;51.86894000;5.39848000;2023-05-14T07:59:03;13.73;;;7.63;;
7829;SDS011;3960;51.86894000;5.39848000;2023-05-14T08:01:28;11.45;;;7.20;;
7829;SDS011;3960;51.86894000;5.39848000;2023-05-14T08:03:53;17.15;;;6.90;;
7829;SDS011;3960;51.86894000;5.39848000;2023-05-14T08:06:18;10.63;;;7.28;;
7829;SDS011;3960;51.86894000;5.39848000;2023-05-14T08:08:45;15.60;;;7.18;;
7829;SDS011;3960;51.86894000;5.39848000;2023-05-14T08:11:11;11.40;;;6.80;;
7829;SDS011;3960;51.86894000;5.39848000;2023-05-14T08:13:36;13.50;;;7.00;;
7829;SDS011;3960;51.86894000;5.39848000;2023-05-14T08:16:01;11.50;;;6.70;;
7829;SDS011;3960;51.86894000;5.39848000;2023-05-14T08:18:27;14.23;;;6.85;;
7829;SDS011;3960;51.86894000;5.39848000;2023-05-14T08:20:52;8.98;;;6.85;;
7829;SDS011;3960;51.86894000;5.39848000;2023-05-14T08:23:17;14.40;;;6.97;;
7829;SDS011;3960;51.86894000;5.39848000;2023-05-14T08:25:42;12.88;;;7.30;;
7829;SDS011;3960;51.86894000;5.39848000;2023-05-14T08:28:08;12.68;;;6.30;;
7829;SDS011;3960;51.86894000;5.39848000;2023-05-14T08:30:33;8.82;;;6.22;;
7829;SDS011;3960;51.86894000;5.39848000;2023-05-14T08:32:58;11.63;;;6.30;;
7829;SDS011;3960;51.86894000;5.39848000;2023-05-14T08:35:24;7.53;;;5.75;;
7829;SDS011;3960;51.86894000;5.39848000;2023-05-14T08:37:49;9.60;;;5.88;;
7829;SDS011;3960;51.86894000;5.39848000;2023-05-14T08:40:15;10.80;;;6.20;;
7829;SDS011;3960;51.86894000;5.39848000;2023-05-14T08:42:42;26.42;;;6.35;;
7829;SDS011;3960;51.86894000;5.39848000;2023-05-14T08:45:18;11.70;;;6.28;;
7829;SDS011;3960;51.86894000;5.39848000;2023-05-14T08:47:48;15.57;;;6.45;;
7829;SDS011;3960;51.86894000;5.39848000;2023-05-14T08:50:15;9.27;;;5.85;;
7829;SDS011;3960;51.86894000;5.39848000;2023-05-14T08:52:41;10.98;;;5.95;;
7829;SDS011;3960;51.86894000;5.39848000;2023-05-14T08:55:07;12.95;;;6.13;;
7829;SDS011;3960;51.86894000;5.39848000;2023-05-14T08:57:33;12.48;;;5.90;;
7829;SDS011;3960;51.86894000;5.39848000;2023-05-14T08:59:59;8.20;;;6.15;;
7829;SDS011;3960;51.86894000;5.39848000;2023-05-14T09:02:27;9.30;;;6.35;;
7829;SDS011;3960;51.86894000;5.39848000;2023-05-14T09:04:54;10.18;;;5.88;;
7829;SDS011;3960;51.86894000;5.39848000;2023-05-14T09:07:21;13.70;;;6.30;;
7829;SDS011;3960;51.86894000;5.39848000;2023-05-14T09:09:47;11.02;;;6.35;;
7829;SDS011;3960;51.86894000;5.39848000;2023-05-14T09:12:13;9.38;;;6.00;;
7829;SDS011;3960;51.86894000;5.39848000;2023-05-14T09:14:38;11.77;;;5.68;;
7829;SDS011;3960;51.86894000;5.39848000;2023-05-14T09:17:04;9.07;;;5.63;;
7829;SDS011;3960;51.86894000;5.39848000;2023-05-14T09:19:29;11.85;;;6.53;;
7829;SDS011;3960;51.86894000;5.39848000;2023-05-14T09:21:56;9.70;;;5.78;;
7829;SDS011;3960;51.86894000;5.39848000;2023-05-14T09:24:24;10.65;;;5.80;;
7829;SDS011;3960;51.86894000;5.39848000;2023-05-14T09:26:54;8.55;;;5.47;;
7829;SDS011;3960;51.86894000;5.39848000;2023-05-14T09:29:23;10.68;;;5.70;;
7829;SDS011;3960;51.86894000;5.39848000;2023-05-14T09:31:50;8.77;;;5.90;;
7829;SDS011;3960;51.86894000;5.39848000;2023-05-14T09:34:22;8.15;;;5.70;;
7829;SDS011;3960;51.86894000;5.39848000;2023-05-14T09:36:49;7.65;;;5.32;;
7829;SDS011;3960;51.86894000;5.39848000;2023-05-14T09:39:14;11.23;;;5.53;;
7829;SDS011;3960;51.86894000;5.39848000;2023-05-14T09:41:41;9.50;;;5.60;;
7829;SDS011;3960;51.86894000;5.39848000;2023-05-14T09:44:06;11.88;;;6.32;;
7829;SDS011;3960;51.86894000;5.39848000;2023-05-14T09:46:31;10.05;;;5.50;;
7829;SDS011;3960;51.86894000;5.39848000;2023-05-14T09:48:57;11.00;;;5.90;;
7829;SDS011;3960;51.86894000;5.39848000;2023-05-14T09:51:22;9.70;;;5.78;;
7829;SDS011;3960;51.86894000;5.39848000;2023-05-14T09:53:48;10.18;;;6.00;;
7829;SDS011;3960;51.86894000;5.39848000;2023-05-14T09:56:16;16.95;;;6.18;;
7829;SDS011;3960;51.86894000;5.39848000;2023-05-14T09:58:41;11.82;;;6.20;;
7829;SDS011;3960;51.86894000;5.39848000;2023-05-14T10:01:07;13.18;;;5.65;;
7829;SDS011;3960;51.86894000;5.39848000;2023-05-14T10:03:32;11.80;;;6.22;;
7829;SDS011;3960;51.86894000;5.39848000;2023-05-14T10:05:59;10.43;;;5.70;;
7829;SDS011;3960;51.86894000;5.39848000;2023-05-14T10:08:29;8.65;;;5.32;;
7829;SDS011;3960;51.86894000;5.39848000;2023-05-14T10:10:58;11.88;;;6.32;;
7829;SDS011;3960;51.86894000;5.39848000;2023-05-14T10:13:29;9.00;;;5.68;;
7829;SDS011;3960;51.86894000;5.39848000;2023-05-14T10:16:01;8.30;;;5.13;;
7829;SDS011;3960;51.86894000;5.39848000;2023-05-14T10:18:30;8.60;;;5.63;;
7829;SDS011;3960;51.86894000;5.39848000;2023-05-14T10:21:01;9.90;;;5.55;;
7829;SDS011;3960;51.86894000;5.39848000;2023-05-14T10:23:29;10.07;;;5.38;;
7829;SDS011;3960;51.86894000;5.39848000;2023-05-14T10:25:55;8.15;;;5.20;;
7829;SDS011;3960;51.86894000;5.39848000;2023-05-14T10:28:22;8.32;;;5.22;;
7829;SDS011;3960;51.86894000;5.39848000;2023-05-14T10:30:47;8.13;;;5.80;;
7829;SDS011;3960;51.86894000;5.39848000;2023-05-14T10:33:14;9.52;;;5.90;;
7829;SDS011;3960;51.86894000;5.39848000;2023-05-14T10:38:25;8.45;;;5.22;;
7829;SDS011;3960;51.86894000;5.39848000;2023-05-14T10:40:53;8.32;;;5.25;;
7829;SDS011;3960;51.86894000;5.39848000;2023-05-14T10:43:20;8.00;;;4.50;;
7829;SDS011;3960;51.86894000;5.39848000;2023-05-14T10:45:50;10.85;;;5.07;;
7829;SDS011;3960;51.86894000;5.39848000;2023-05-14T10:48:15;9.20;;;4.95;;
7829;SDS011;3960;51.86894000;5.39848000;2023-05-14T10:50:41;10.68;;;5.38;;
7829;SDS011;3960;51.86894000;5.39848000;2023-05-14T10:53:09;6.13;;;4.88;;
7829;SDS011;3960;51.86894000;5.39848000;2023-05-14T10:55:36;8.00;;;5.32;;
7829;SDS011;3960;51.86894000;5.39848000;2023-05-14T10:58:02;7.88;;;5.20;;
7829;SDS011;3960;51.86894000;5.39848000;2023-05-14T11:00:28;9.95;;;4.88;;
7829;SDS011;3960;51.86894000;5.39848000;2023-05-14T11:02:54;8.95;;;4.82;;
7829;SDS011;3960;51.86894000;5.39848000;2023-05-14T11:05:21;9.50;;;4.78;;
7829;SDS011;3960;51.86894000;5.39848000;2023-05-14T11:07:47;7.93;;;4.30;;
7829;SDS011;3960;51.86894000;5.39848000;2023-05-14T11:12:41;8.38;;;4.70;;
7829;SDS011;3960;51.86894000;5.39848000;2023-05-14T11:15:09;8.38;;;4.50;;
7829;SDS011;3960;51.86894000;5.39848000;2023-05-14T11:17:39;8.15;;;4.80;;
7829;SDS011;3960;51.86894000;5.39848000;2023-05-14T11:20:06;10.30;;;4.68;;
7829;SDS011;3960;51.86894000;5.39848000;2023-05-14T11:22:32;8.13;;;4.22;;
7829;SDS011;3960;51.86894000;5.39848000;2023-05-14T11:24:58;6.50;;;4.35;;
7829;SDS011;3960;51.86894000;5.39848000;2023-05-14T11:27:24;11.27;;;4.60;;
7829;SDS011;3960;51.86894000;5.39848000;2023-05-14T11:29:50;9.82;;;4.20;;
7829;SDS011;3960;51.86894000;5.39848000;2023-05-14T11:32:16;9.05;;;4.45;;
7829;SDS011;3960;51.86894000;5.39848000;2023-05-14T11:34:43;6.30;;;4.28;;
7829;SDS011;3960;51.86894000;5.39848000;2023-05-14T11:37:09;6.57;;;4.40;;
7829;SDS011;3960;51.86894000;5.39848000;2023-05-14T11:39:36;7.50;;;4.05;;
7829;SDS011;3960;51.86894000;5.39848000;2023-05-14T11:42:02;7.20;;;4.10;;
7829;SDS011;3960;51.86894000;5.39848000;2023-05-14T11:44:29;9.40;;;4.68;;
7829;SDS011;3960;51.86894000;5.39848000;2023-05-14T11:46:57;7.35;;;4.30;;
7829;SDS011;3960;51.86894000;5.39848000;2023-05-14T11:49:24;7.63;;;4.00;;
7829;SDS011;3960;51.86894000;5.39848000;2023-05-14T11:51:55;7.63;;;3.95;;
7829;SDS011;3960;51.86894000;5.39848000;2023-05-14T11:54:21;8.43;;;3.90;;
7829;SDS011;3960;51.86894000;5.39848000;2023-05-14T11:56:49;9.23;;;4.03;;
7829;SDS011;3960;51.86894000;5.39848000;2023-05-14T11:59:15;5.70;;;3.92;;
7829;SDS011;3960;51.86894000;5.39848000;2023-05-14T12:01:41;6.20;;;3.47;;
7829;SDS011;3960;51.86894000;5.39848000;2023-05-14T12:04:08;7.15;;;3.53;;
7829;SDS011;3960;51.86894000;5.39848000;2023-05-14T12:06:33;11.43;;;3.75;;
7829;SDS011;3960;51.86894000;5.39848000;2023-05-14T12:08:59;7.70;;;3.60;;
7829;SDS011;3960;51.86894000;5.39848000;2023-05-14T12:11:29;8.73;;;3.70;;
7829;SDS011;3960;51.86894000;5.39848000;2023-05-14T12:13:54;8.05;;;3.80;;
7829;SDS011;3960;51.86894000;5.39848000;2023-05-14T12:16:20;9.93;;;3.42;;
7829;SDS011;3960;51.86894000;5.39848000;2023-05-14T12:18:45;6.43;;;3.40;;
7829;SDS011;3960;51.86894000;5.39848000;2023-05-14T12:21:10;8.32;;;3.83;;
7829;SDS011;3960;51.86894000;5.39848000;2023-05-14T12:23:37;9.30;;;3.92;;
7829;SDS011;3960;51.86894000;5.39848000;2023-05-14T12:26:03;6.57;;;3.30;;
7829;SDS011;3960;51.86894000;5.39848000;2023-05-14T12:28:30;12.50;;;3.42;;
7829;SDS011;3960;51.86894000;5.39848000;2023-05-14T12:30:56;10.70;;;3.38;;
7829;SDS011;3960;51.86894000;5.39848000;2023-05-14T12:33:23;7.55;;;3.08;;
7829;SDS011;3960;51.86894000;5.39848000;2023-05-14T12:35:50;7.40;;;3.22;;
7829;SDS011;3960;51.86894000;5.39848000;2023-05-14T12:38:17;7.32;;;3.20;;
7829;SDS011;3960;51.86894000;5.39848000;2023-05-14T12:40:43;8.43;;;3.35;;
7829;SDS011;3960;51.86894000;5.39848000;2023-05-14T12:43:08;8.50;;;3.50;;
7829;SDS011;3960;51.86894000;5.39848000;2023-05-14T12:45:33;9.55;;;3.28;;
7829;SDS011;3960;51.86894000;5.39848000;2023-05-14T12:47:59;6.07;;;3.28;;
7829;SDS011;3960;51.86894000;5.39848000;2023-05-14T12:50:24;7.47;;;3.17;;
7829;SDS011;3960;51.86894000;5.39848000;2023-05-14T12:52:49;9.27;;;3.35;;
7829;SDS011;3960;51.86894000;5.39848000;2023-05-14T12:55:14;7.10;;;3.00;;
7829;SDS011;3960;51.86894000;5.39848000;2023-05-14T12:57:40;9.98;;;3.15;;
7829;SDS011;3960;51.86894000;5.39848000;2023-05-14T13:00:06;9.38;;;3.35;;